Terminal Aerodrome Forecast
Issued by NWS

Home | Current Version | Previous Version | Text Only | Print | Product List | Glossary On
Versions: 1 2 3 4 5 6 7 8 9 10 11 12 13 14 15 16 17 18 19 20
000
FTUS41 KCAR 281700 RRA
TAFFVE
TAF
KFVE 281750Z 2818/2918 15006KT P6SM SCT007 OVC015
     FM282200 11010KT 3SM -SHRA OVC007
     FM290100 11007KT 3SM -SHRA SCT003 OVC007
     FM290600 17008KT 3SM -SHRA OVC003
     FM291200 21008KT P6SM BKN008
     FM291600 21009KT P6SM BKN015=

USA.gov is the U.S. government's official web portal to all federal, state and local government web resources and services.